createdAt,value
2023-06-06T00:08:30.728Z,101857.50
2023-06-06T00:18:32.027Z,101853.38
2023-06-06T00:28:33.299Z,101851.78
2023-06-06T00:38:34.630Z,101858.00
2023-06-06T00:48:35.951Z,101859.63
2023-06-06T00:58:38.031Z,101851.66
2023-06-06T01:08:39.486Z,101847.66
2023-06-06T01:18:40.764Z,101851.00
2023-06-06T01:28:42.031Z,101850.31
2023-06-06T01:49:12.006Z,101850.50
2023-06-06T01:59:13.322Z,101850.44
2023-06-06T02:09:14.574Z,101853.88
2023-06-06T02:19:15.866Z,101851.47
2023-06-06T02:29:21.072Z,101852.81
2023-06-06T02:39:22.375Z,101842.91
2023-06-06T03:10:22.382Z,101851.78
2023-06-06T03:20:23.644Z,101850.75
2023-06-06T03:30:24.942Z,101850.56
2023-06-06T03:40:26.223Z,101848.59
2023-06-06T03:50:27.579Z,101851.44
2023-06-06T04:00:28.888Z,101854.59
2023-06-06T04:10:30.156Z,101855.91
2023-06-06T04:20:31.403Z,101858.06
2023-06-06T04:30:32.696Z,101864.97
2023-06-06T04:40:46.931Z,101864.88
2023-06-06T04:50:55.226Z,101860.06
2023-06-06T05:00:56.505Z,101853.75
2023-06-06T05:10:57.864Z,101852.78
2023-06-06T05:20:59.142Z,101866.34
2023-06-06T05:31:00.422Z,101870.31
2023-06-06T05:41:01.733Z,101871.22
2023-06-06T05:51:04.308Z,101876.97
2023-06-06T06:01:05.564Z,101878.06
2023-06-06T06:11:06.853Z,101875.84
2023-06-06T06:21:08.181Z,101885.19
2023-06-06T06:31:11.849Z,101884.69
2023-06-06T06:41:13.584Z,101889.72
2023-06-06T06:51:15.061Z,101893.53
2023-06-06T07:01:16.340Z,101897.81
2023-06-06T07:11:17.601Z,101897.50
2023-06-06T07:21:18.859Z,101882.88
2023-06-06T07:31:20.190Z,101895.09
2023-06-06T07:41:21.505Z,101876.25
2023-06-06T07:51:22.845Z,101871.13
2023-06-06T08:01:24.237Z,101866.81
2023-06-06T08:11:25.497Z,101861.28
2023-06-06T08:21:26.783Z,101872.66
2023-06-06T08:31:28.135Z,101867.19
2023-06-06T08:41:29.459Z,101867.72
2023-06-06T08:51:30.736Z,101862.59
2023-06-06T09:01:32.101Z,101857.06
2023-06-06T09:11:33.379Z,101860.09
2023-06-06T09:21:34.689Z,101857.72
2023-06-06T09:31:36.055Z,101846.66
2023-06-06T09:41:37.392Z,101847.44
2023-06-06T09:51:38.684Z,101835.97
2023-06-06T10:01:40.055Z,101836.09
2023-06-06T10:11:41.367Z,101825.94
2023-06-06T10:21:43.303Z,101822.56
2023-06-06T10:31:44.675Z,101817.41
2023-06-06T10:41:46.017Z,101819.78
2023-06-06T10:51:49.564Z,101815.09
2023-06-06T11:01:51.644Z,101804.97
2023-06-06T11:11:53.019Z,101809.41
2023-06-06T11:21:54.339Z,101796.28
2023-06-06T11:31:55.615Z,101792.53
2023-06-06T11:41:56.933Z,101787.13
2023-06-06T11:51:58.197Z,101779.84
2023-06-06T12:01:59.477Z,101779.91
2023-06-06T12:12:00.748Z,101775.66
2023-06-06T12:22:02.091Z,101760.72
2023-06-06T12:32:06.242Z,101772.00
2023-06-06T12:42:07.529Z,101758.66
2023-06-06T12:52:08.807Z,101749.81
2023-06-06T13:02:10.392Z,101735.06
2023-06-06T13:12:11.846Z,101745.59
2023-06-06T13:22:13.111Z,101731.50
2023-06-06T13:32:14.475Z,101730.56
2023-06-06T13:42:15.781Z,101718.22
2023-06-06T13:52:17.037Z,101709.47
2023-06-06T14:02:19.335Z,101713.75
2023-06-06T14:12:20.661Z,101693.91
2023-06-06T14:22:22.058Z,101693.06
2023-06-06T14:32:24.269Z,101693.56
2023-06-06T14:42:25.579Z,101689.50
2023-06-06T14:52:26.865Z,101689.56
2023-06-06T15:02:28.185Z,101685.34
2023-06-06T15:12:29.718Z,101681.81
2023-06-06T15:22:30.978Z,101671.38
2023-06-06T15:32:32.302Z,101673.72
2023-06-06T15:42:33.614Z,101673.66
2023-06-06T15:52:34.901Z,101657.91
2023-06-06T16:02:36.312Z,101649.25
2023-06-06T16:12:37.628Z,101647.34
2023-06-06T16:22:38.930Z,101649.41
2023-06-06T16:32:40.275Z,101637.84
2023-06-06T16:42:41.555Z,101640.78
2023-06-06T16:52:42.831Z,101653.00
2023-06-06T17:02:44.156Z,101633.34
2023-06-06T17:12:45.478Z,101646.34
2023-06-06T17:22:46.730Z,101649.19
2023-06-06T17:32:48.142Z,101651.91
2023-06-06T17:42:49.484Z,101653.63
2023-06-06T17:52:51.097Z,101658.53
2023-06-06T18:02:52.566Z,101665.88
2023-06-06T18:12:53.938Z,101672.00
2023-06-06T18:22:55.216Z,101674.66
2023-06-06T18:32:56.513Z,101677.44
2023-06-06T18:42:57.856Z,101681.66
2023-06-06T18:52:59.145Z,101692.91
2023-06-06T19:03:00.495Z,101706.03
2023-06-06T19:13:01.840Z,101714.03
2023-06-06T19:23:03.129Z,101722.00
2023-06-06T19:33:04.499Z,101726.59
2023-06-06T19:43:05.804Z,101736.41
2023-06-06T19:53:07.080Z,101749.53
2023-06-06T20:03:08.513Z,101754.97
2023-06-06T20:13:09.842Z,101761.00
2023-06-06T20:23:11.109Z,101783.63
2023-06-06T20:33:12.381Z,101793.72
2023-06-06T20:43:13.752Z,101792.59
2023-06-06T20:53:15.101Z,101800.25
2023-06-06T21:03:16.497Z,101811.00
2023-06-06T21:13:17.913Z,101829.47
2023-06-06T21:23:19.191Z,101803.50
2023-06-06T21:33:20.537Z,101808.94
2023-06-06T21:43:21.852Z,101811.66
2023-06-06T21:53:23.155Z,101808.19
2023-06-06T22:03:24.504Z,101813.78
2023-06-06T22:13:25.845Z,101818.72
2023-06-06T22:23:27.212Z,101823.44
2023-06-06T22:33:28.529Z,101825.94
2023-06-06T22:43:29.815Z,101819.84
2023-06-06T22:53:31.096Z,101823.53
2023-06-06T23:03:32.552Z,101816.66
2023-06-06T23:13:34.012Z,101810.63
2023-06-06T23:23:35.349Z,101811.53
2023-06-06T23:33:36.615Z,101809.66
2023-06-06T23:43:37.892Z,101812.28
2023-06-06T23:53:39.195Z,101817.44
